sensor_id;sensor_type;location;lat;lon;timestamp;pressure;altitude;pressure_sealevel;temperature;humidity
51289;BME280;37372;52.294;5.152;2023-04-29T00:00:32;101509.03;;;8.83;85.52
51289;BME280;37372;52.294;5.152;2023-04-29T00:02:57;101511.34;;;8.86;85.20
51289;BME280;37372;52.294;5.152;2023-04-29T00:05:25;101513.66;;;8.83;85.11
51289;BME280;37372;52.294;5.152;2023-04-29T00:07:52;101516.59;;;8.88;85.26
51289;BME280;37372;52.294;5.152;2023-04-29T00:10:17;101517.00;;;8.85;85.15
51289;BME280;37372;52.294;5.152;2023-04-29T00:12:43;101532.97;;;8.81;85.52
51289;BME280;37372;52.294;5.152;2023-04-29T00:15:12;101517.84;;;8.85;85.15
51289;BME280;37372;52.294;5.152;2023-04-29T00:17:37;101531.53;;;8.85;85.01
51289;BME280;37372;52.294;5.152;2023-04-29T00:20:11;101521.44;;;8.86;84.75
51289;BME280;37372;52.294;5.152;2023-04-29T00:22:46;101538.06;;;8.84;84.85
51289;BME280;37372;52.294;5.152;2023-04-29T00:25:14;101531.53;;;8.85;84.88
51289;BME280;37372;52.294;5.152;2023-04-29T00:27:41;101532.00;;;8.89;84.83
51289;BME280;37372;52.294;5.152;2023-04-29T00:30:13;101535.13;;;8.86;84.97
51289;BME280;37372;52.294;5.152;2023-04-29T00:32:39;101537.25;;;8.90;84.76
51289;BME280;37372;52.294;5.152;2023-04-29T00:35:12;101537.59;;;8.81;85.06
51289;BME280;37372;52.294;5.152;2023-04-29T00:37:37;101534.88;;;8.81;85.16
51289;BME280;37372;52.294;5.152;2023-04-29T00:40:14;101546.66;;;8.81;84.74
51289;BME280;37372;52.294;5.152;2023-04-29T00:42:42;101553.19;;;8.80;84.38
51289;BME280;37372;52.294;5.152;2023-04-29T00:45:14;101553.84;;;8.82;84.33
51289;BME280;37372;52.294;5.152;2023-04-29T00:47:40;101549.38;;;8.81;84.32
51289;BME280;37372;52.294;5.152;2023-04-29T00:50:15;101551.09;;;8.82;85.22
51289;BME280;37372;52.294;5.152;2023-04-29T00:52:43;101550.06;;;8.83;85.30
51289;BME280;37372;52.294;5.152;2023-04-29T00:55:16;101562.22;;;8.81;84.81
51289;BME280;37372;52.294;5.152;2023-04-29T00:57:53;101555.72;;;8.82;84.73
51289;BME280;37372;52.294;5.152;2023-04-29T01:00:19;101557.59;;;8.81;84.86
51289;BME280;37372;52.294;5.152;2023-04-29T01:02:45;101561.38;;;8.80;85.05
51289;BME280;37372;52.294;5.152;2023-04-29T01:05:17;101562.06;;;8.82;85.08
51289;BME280;37372;52.294;5.152;2023-04-29T01:10:40;101570.84;;;8.78;85.08
51289;BME280;37372;52.294;5.152;2023-04-29T01:13:41;101573.16;;;8.81;84.90
51289;BME280;37372;52.294;5.152;2023-04-29T01:16:44;101571.94;;;8.83;85.43
51289;BME280;37372;52.294;5.152;2023-04-29T01:19:46;101568.53;;;8.81;85.07
51289;BME280;37372;52.294;5.152;2023-04-29T01:22:12;101579.09;;;8.84;84.93
51289;BME280;37372;52.294;5.152;2023-04-29T01:24:43;101581.03;;;8.90;85.55
51289;BME280;37372;52.294;5.152;2023-04-29T01:27:32;101587.69;;;8.81;84.59
51289;BME280;37372;52.294;5.152;2023-04-29T01:33:14;101585.16;;;8.80;84.41
51289;BME280;37372;52.294;5.152;2023-04-29T01:41:52;101595.91;;;8.81;84.25
51289;BME280;37372;52.294;5.152;2023-04-29T01:44:26;101598.63;;;8.81;84.64
51289;BME280;37372;52.294;5.152;2023-04-29T01:46:56;101601.59;;;8.80;84.61
51289;BME280;37372;52.294;5.152;2023-04-29T01:49:27;101601.63;;;8.86;84.86
51289;BME280;37372;52.294;5.152;2023-04-29T01:51:52;101604.94;;;8.82;85.15
51289;BME280;37372;52.294;5.152;2023-04-29T01:54:18;101600.34;;;8.82;84.19
51289;BME280;37372;52.294;5.152;2023-04-29T01:56:45;101600.41;;;8.89;84.12
51289;BME280;37372;52.294;5.152;2023-04-29T01:59:12;101607.91;;;8.80;84.84
51289;BME280;37372;52.294;5.152;2023-04-29T02:01:48;101603.25;;;8.81;84.98
51289;BME280;37372;52.294;5.152;2023-04-29T02:04:13;101602.03;;;8.83;84.69
51289;BME280;37372;52.294;5.152;2023-04-29T02:06:49;101599.91;;;8.79;84.89
51289;BME280;37372;52.294;5.152;2023-04-29T02:09:15;101609.16;;;8.78;85.26
51289;BME280;37372;52.294;5.152;2023-04-29T02:11:46;101613.38;;;8.80;85.00
51289;BME280;37372;52.294;5.152;2023-04-29T02:14:12;101608.31;;;8.77;85.29
51289;BME280;37372;52.294;5.152;2023-04-29T02:16:47;101609.41;;;8.83;85.33
51289;BME280;37372;52.294;5.152;2023-04-29T02:19:12;101610.63;;;8.80;85.63
51289;BME280;37372;52.294;5.152;2023-04-29T02:21:49;101625.78;;;8.76;85.85
51289;BME280;37372;52.294;5.152;2023-04-29T02:24:15;101625.78;;;8.76;85.65
51289;BME280;37372;52.294;5.152;2023-04-29T02:26:49;101630.16;;;8.71;85.86
51289;BME280;37372;52.294;5.152;2023-04-29T02:29:14;101627.59;;;8.69;86.08
51289;BME280;37372;52.294;5.152;2023-04-29T02:31:39;101633.06;;;8.69;85.93
51289;BME280;37372;52.294;5.152;2023-04-29T02:34:06;101634.78;;;8.70;86.63
51289;BME280;37372;52.294;5.152;2023-04-29T02:36:32;101637.09;;;8.73;86.69
51289;BME280;37372;52.294;5.152;2023-04-29T02:38:58;101641.72;;;8.73;86.27
51289;BME280;37372;52.294;5.152;2023-04-29T02:41:27;101647.66;;;8.76;85.80
51289;BME280;37372;52.294;5.152;2023-04-29T02:43:55;101637.78;;;8.82;85.51
51289;BME280;37372;52.294;5.152;2023-04-29T02:46:20;101649.13;;;8.79;85.17
51289;BME280;37372;52.294;5.152;2023-04-29T02:48:46;101648.72;;;8.82;84.52
51289;BME280;37372;52.294;5.152;2023-04-29T02:51:11;101651.66;;;8.80;84.57
51289;BME280;37372;52.294;5.152;2023-04-29T02:53:36;101655.06;;;8.82;84.58
51289;BME280;37372;52.294;5.152;2023-04-29T02:56:03;101654.16;;;8.75;84.03
51289;BME280;37372;52.294;5.152;2023-04-29T02:58:30;101660.72;;;8.81;84.03
51289;BME280;37372;52.294;5.152;2023-04-29T03:00:57;101657.34;;;8.79;83.76
51289;BME280;37372;52.294;5.152;2023-04-29T03:03:23;101662.88;;;8.85;83.90
51289;BME280;37372;52.294;5.152;2023-04-29T03:05:53;101663.28;;;8.82;83.80
51289;BME280;37372;52.294;5.152;2023-04-29T03:08:20;101664.97;;;8.83;83.95
51289;BME280;37372;52.294;5.152;2023-04-29T03:10:45;101662.22;;;8.83;83.53
51289;BME280;37372;52.294;5.152;2023-04-29T03:13:12;101666.00;;;8.82;84.26
51289;BME280;37372;52.294;5.152;2023-04-29T03:15:46;101674.44;;;8.87;83.91
51289;BME280;37372;52.294;5.152;2023-04-29T03:18:13;101675.50;;;8.86;83.65
51289;BME280;37372;52.294;5.152;2023-04-29T03:20:43;101683.91;;;8.85;84.15
51289;BME280;37372;52.294;5.152;2023-04-29T03:23:11;101682.81;;;8.79;84.36
51289;BME280;37372;52.294;5.152;2023-04-29T03:25:45;101688.28;;;8.79;84.17
51289;BME280;37372;52.294;5.152;2023-04-29T03:28:10;101689.13;;;8.80;84.43
51289;BME280;37372;52.294;5.152;2023-04-29T03:30:46;101686.84;;;8.83;84.29
51289;BME280;37372;52.294;5.152;2023-04-29T03:33:12;101680.97;;;8.86;84.37
51289;BME280;37372;52.294;5.152;2023-04-29T03:35:48;101686.84;;;8.83;84.63
51289;BME280;37372;52.294;5.152;2023-04-29T03:38:13;101684.13;;;8.83;84.72
51289;BME280;37372;52.294;5.152;2023-04-29T03:40:46;101683.66;;;8.80;84.97
51289;BME280;37372;52.294;5.152;2023-04-29T03:43:11;101686.38;;;8.80;85.25
51289;BME280;37372;52.294;5.152;2023-04-29T03:45:49;101693.75;;;8.79;85.31
51289;BME280;37372;52.294;5.152;2023-04-29T03:48:16;101700.06;;;8.80;85.27
51289;BME280;37372;52.294;5.152;2023-04-29T03:50:52;101697.13;;;8.81;85.03
51289;BME280;37372;52.294;5.152;2023-04-29T03:53:17;101700.47;;;8.77;85.37
51289;BME280;37372;52.294;5.152;2023-04-29T03:56:04;101699.63;;;8.76;85.75
51289;BME280;37372;52.294;5.152;2023-04-29T03:58:33;101696.91;;;8.76;86.13
51289;BME280;37372;52.294;5.152;2023-04-29T04:00:59;101702.16;;;8.78;85.94
51289;BME280;37372;52.294;5.152;2023-04-29T04:03:26;101704.91;;;8.78;86.20
51289;BME280;37372;52.294;5.152;2023-04-29T04:05:56;101714.16;;;8.77;86.29
51289;BME280;37372;52.294;5.152;2023-04-29T04:08:21;101713.16;;;8.84;85.49
51289;BME280;37372;52.294;5.152;2023-04-29T04:11:01;101713.53;;;8.81;85.94
51289;BME280;37372;52.294;5.152;2023-04-29T04:13:29;101725.75;;;8.79;86.20
51289;BME280;37372;52.294;5.152;2023-04-29T04:15:56;101727.63;;;8.78;86.06
51289;BME280;37372;52.294;5.152;2023-04-29T04:18:28;101728.94;;;8.82;86.77
51289;BME280;37372;52.294;5.152;2023-04-29T04:21:05;101736.09;;;8.83;86.39
51289;BME280;37372;52.294;5.152;2023-04-29T04:23:31;101731.28;;;8.85;85.91
51289;BME280;37372;52.294;5.152;2023-04-29T04:26:04;101732.53;;;8.83;86.29
51289;BME280;37372;52.294;5.152;2023-04-29T04:28:31;101738.63;;;8.85;85.75
51289;BME280;37372;52.294;5.152;2023-04-29T04:31:00;101741.38;;;8.85;85.89
51289;BME280;37372;52.294;5.152;2023-04-29T04:33:26;101735.91;;;8.85;85.66
51289;BME280;37372;52.294;5.152;2023-04-29T04:36:07;101736.75;;;8.85;86.09
51289;BME280;37372;52.294;5.152;2023-04-29T04:38:33;101741.38;;;8.85;86.57
51289;BME280;37372;52.294;5.152;2023-04-29T04:40:59;101749.97;;;8.82;86.07
51289;BME280;37372;52.294;5.152;2023-04-29T04:43:25;101749.63;;;8.91;86.25
51289;BME280;37372;52.294;5.152;2023-04-29T04:46:16;101756.53;;;8.87;85.81
51289;BME280;37372;52.294;5.152;2023-04-29T04:48:42;101759.09;;;8.89;85.78
51289;BME280;37372;52.294;5.152;2023-04-29T04:51:12;101763.25;;;8.85;85.59
51289;BME280;37372;52.294;5.152;2023-04-29T04:53:39;101773.78;;;8.88;84.98
51289;BME280;37372;52.294;5.152;2023-04-29T04:56:08;101772.84;;;8.95;85.49
51289;BME280;37372;52.294;5.152;2023-04-29T04:58:36;101776.78;;;8.93;85.17
51289;BME280;37372;52.294;5.152;2023-04-29T05:01:10;101784.56;;;8.89;84.83
51289;BME280;37372;52.294;5.152;2023-04-29T05:03:36;101776.34;;;8.89;85.09
51289;BME280;37372;52.294;5.152;2023-04-29T05:06:14;101781.88;;;8.96;84.57
51289;BME280;37372;52.294;5.152;2023-04-29T05:08:40;101785.00;;;8.93;84.00
51289;BME280;37372;52.294;5.152;2023-04-29T05:11:15;101789.00;;;8.90;83.95
51289;BME280;37372;52.294;5.152;2023-04-29T05:13:41;101792.88;;;9.03;84.02
51289;BME280;37372;52.294;5.152;2023-04-29T05:16:11;101792.88;;;9.03;83.91
51289;BME280;37372;52.294;5.152;2023-04-29T05:18:38;101804.22;;;9.00;83.30
51289;BME280;37372;52.294;5.152;2023-04-29T05:21:17;101806.09;;;8.99;83.92
51289;BME280;37372;52.294;5.152;2023-04-29T05:23:42;101807.41;;;9.03;83.20
51289;BME280;37372;52.294;5.152;2023-04-29T05:26:09;101808.25;;;9.04;83.56
51289;BME280;37372;52.294;5.152;2023-04-29T05:28:38;101808.25;;;9.04;83.64
51289;BME280;37372;52.294;5.152;2023-04-29T05:31:13;101807.22;;;9.05;84.03
51289;BME280;37372;52.294;5.152;2023-04-29T05:33:39;101818.69;;;9.15;83.29
51289;BME280;37372;52.294;5.152;2023-04-29T05:36:17;101817.97;;;9.06;83.40
51289;BME280;37372;52.294;5.152;2023-04-29T05:38:43;101823.28;;;9.14;83.43
51289;BME280;37372;52.294;5.152;2023-04-29T05:41:16;101825.84;;;9.16;83.67
51289;BME280;37372;52.294;5.152;2023-04-29T05:43:41;101822.66;;;9.12;83.17
51289;BME280;37372;52.294;5.152;2023-04-29T05:46:14;101830.28;;;9.17;82.94
51289;BME280;37372;52.294;5.152;2023-04-29T05:48:41;101823.81;;;9.25;81.78
51289;BME280;37372;52.294;5.152;2023-04-29T05:51:20;101835.69;;;9.10;82.47
51289;BME280;37372;52.294;5.152;2023-04-29T05:53:45;101835.97;;;9.15;82.80
51289;BME280;37372;52.294;5.152;2023-04-29T05:56:16;101835.28;;;9.35;83.01
51289;BME280;37372;52.294;5.152;2023-04-29T05:58:42;101836.97;;;9.36;82.27
51289;BME280;37372;52.294;5.152;2023-04-29T06:01:18;101845.97;;;9.30;82.31
51289;BME280;37372;52.294;5.152;2023-04-29T06:03:43;101840.81;;;9.41;82.24
51289;BME280;37372;52.294;5.152;2023-04-29T06:06:18;101847.19;;;9.48;82.54
51289;BME280;37372;52.294;5.152;2023-04-29T06:08:45;101851.50;;;9.64;81.29
51289;BME280;37372;52.294;5.152;2023-04-29T06:11:19;101853.88;;;9.46;81.98
51289;BME280;37372;52.294;5.152;2023-04-29T06:13:44;101858.88;;;9.64;82.04
51289;BME280;37372;52.294;5.152;2023-04-29T06:16:20;101863.06;;;9.60;82.12
51289;BME280;37372;52.294;5.152;2023-04-29T06:18:47;101866.50;;;9.68;81.94
51289;BME280;37372;52.294;5.152;2023-04-29T06:21:19;101871.94;;;9.62;81.90
51289;BME280;37372;52.294;5.152;2023-04-29T06:23:44;101878.47;;;9.61;82.02
51289;BME280;37372;52.294;5.152;2023-04-29T06:26:21;101893.13;;;9.53;82.42
51289;BME280;37372;52.294;5.152;2023-04-29T06:28:47;101889.00;;;9.64;81.83
51289;BME280;37372;52.294;5.152;2023-04-29T06:31:22;101889.16;;;9.56;82.30
51289;BME280;37372;52.294;5.152;2023-04-29T06:33:48;101892.47;;;9.51;81.91
51289;BME280;37372;52.294;5.152;2023-04-29T06:36:30;101895.53;;;9.35;81.73
51289;BME280;37372;52.294;5.152;2023-04-29T06:38:56;101901.03;;;9.20;81.97
51289;BME280;37372;52.294;5.152;2023-04-29T06:41:25;101903.66;;;9.07;82.87
51289;BME280;37372;52.294;5.152;2023-04-29T06:43:51;101898.84;;;9.09;82.60
51289;BME280;37372;52.294;5.152;2023-04-29T06:46:18;101910.44;;;9.11;83.17
51289;BME280;37372;52.294;5.152;2023-04-29T06:48:48;101912.84;;;9.20;82.78
51289;BME280;37372;52.294;5.152;2023-04-29T06:51:29;101911.28;;;9.33;81.85
51289;BME280;37372;52.294;5.152;2023-04-29T06:53:57;101920.16;;;9.35;81.84
51289;BME280;37372;52.294;5.152;2023-04-29T06:56:30;101911.09;;;9.34;82.70
51289;BME280;37372;52.294;5.152;2023-04-29T06:58:58;101927.50;;;9.56;81.77
51289;BME280;37372;52.294;5.152;2023-04-29T07:01:27;101930.09;;;9.64;81.38
51289;BME280;37372;52.294;5.152;2023-04-29T07:03:56;101934.63;;;9.78;80.55
51289;BME280;37372;52.294;5.152;2023-04-29T07:06:26;101935.88;;;9.75;79.38
51289;BME280;37372;52.294;5.152;2023-04-29T07:08:56;101940.00;;;9.86;79.98
51289;BME280;37372;52.294;5.152;2023-04-29T07:11:30;101940.72;;;10.01;79.26
51289;BME280;37372;52.294;5.152;2023-04-29T07:13:57;101952.06;;;9.92;79.22
51289;BME280;37372;52.294;5.152;2023-04-29T07:16:40;101954.22;;;9.75;79.34
51289;BME280;37372;52.294;5.152;2023-04-29T07:19:09;101960.59;;;9.82;78.36
51289;BME280;37372;52.294;5.152;2023-04-29T07:21:37;101955.66;;;9.71;78.49
51289;BME280;37372;52.294;5.152;2023-04-29T07:24:03;101954.88;;;9.77;79.07
51289;BME280;37372;52.294;5.152;2023-04-29T07:26:41;101962.78;;;9.65;80.20
51289;BME280;37372;52.294;5.152;2023-04-29T07:29:08;101959.28;;;9.78;79.91
51289;BME280;37372;52.294;5.152;2023-04-29T07:31:33;101966.63;;;9.71;79.15
51289;BME280;37372;52.294;5.152;2023-04-29T07:33:59;101969.25;;;9.79;79.07
51289;BME280;37372;52.294;5.152;2023-04-29T07:36:41;101968.66;;;9.90;78.85
51289;BME280;37372;52.294;5.152;2023-04-29T07:39:06;101975.19;;;9.89;77.67
51289;BME280;37372;52.294;5.152;2023-04-29T07:41:35;101982.94;;;10.07;78.07
51289;BME280;37372;52.294;5.152;2023-04-29T07:44:03;101976.56;;;10.00;77.12
51289;BME280;37372;52.294;5.152;2023-04-29T07:46:53;101970.03;;;10.29;77.28
51289;BME280;37372;52.294;5.152;2023-04-29T07:49:19;101977.06;;;10.38;76.43
51289;BME280;37372;52.294;5.152;2023-04-29T07:51:44;101977.63;;;10.27;76.77
51289;BME280;37372;52.294;5.152;2023-04-29T07:54:10;101997.38;;;10.22;77.37
51289;BME280;37372;52.294;5.152;2023-04-29T07:56:53;101993.53;;;10.38;76.27
51289;BME280;37372;52.294;5.152;2023-04-29T07:59:18;102000.94;;;10.44;76.98
51289;BME280;37372;52.294;5.152;2023-04-29T08:01:43;101996.38;;;10.58;74.15
51289;BME280;37372;52.294;5.152;2023-04-29T08:04:09;102000.28;;;10.42;75.25
51289;BME280;37372;52.294;5.152;2023-04-29T08:06:44;102008.75;;;10.47;74.89
51289;BME280;37372;52.294;5.152;2023-04-29T08:09:10;102006.47;;;10.51;74.76
51289;BME280;37372;52.294;5.152;2023-04-29T08:11:44;102002.28;;;10.62;73.18
51289;BME280;37372;52.294;5.152;2023-04-29T08:14:11;102006.59;;;10.71;74.93
51289;BME280;37372;52.294;5.152;2023-04-29T08:16:49;102014.31;;;10.61;73.86
51289;BME280;37372;52.294;5.152;2023-04-29T08:19:19;102013.53;;;10.67;73.74
51289;BME280;37372;52.294;5.152;2023-04-29T08:21:47;102019.03;;;10.73;71.65
51289;BME280;37372;52.294;5.152;2023-04-29T08:24:12;102018.25;;;10.86;72.28
51289;BME280;37372;52.294;5.152;2023-04-29T08:26:57;102018.28;;;10.93;72.29
51289;BME280;37372;52.294;5.152;2023-04-29T08:29:23;102019.16;;;11.00;72.19
51289;BME280;37372;52.294;5.152;2023-04-29T08:31:48;102021.50;;;10.96;72.21
51289;BME280;37372;52.294;5.152;2023-04-29T08:34:15;102021.00;;;10.86;71.76
51289;BME280;37372;52.294;5.152;2023-04-29T08:36:50;102023.34;;;10.89;70.47
51289;BME280;37372;52.294;5.152;2023-04-29T08:39:18;102026.97;;;10.96;72.30
51289;BME280;37372;52.294;5.152;2023-04-29T08:41:46;102032.03;;;10.99;72.54
51289;BME280;37372;52.294;5.152;2023-04-29T08:44:16;102042.78;;;10.94;71.86
51289;BME280;37372;52.294;5.152;2023-04-29T08:46:48;102036.44;;;10.94;71.18
51289;BME280;37372;52.294;5.152;2023-04-29T08:49:16;102032.56;;;10.75;70.99
51289;BME280;37372;52.294;5.152;2023-04-29T08:51:49;102043.44;;;10.96;70.21
51289;BME280;37372;52.294;5.152;2023-04-29T08:54:17;102037.28;;;10.94;71.46
51289;BME280;37372;52.294;5.152;2023-04-29T08:56:50;102049.03;;;11.16;69.29
51289;BME280;37372;52.294;5.152;2023-04-29T08:59:16;102044.00;;;11.39;71.49
51289;BME280;37372;52.294;5.152;2023-04-29T09:01:50;102052.91;;;11.35;70.32
51289;BME280;37372;52.294;5.152;2023-04-29T09:04:52;102060.53;;;11.46;69.58
51289;BME280;37372;52.294;5.152;2023-04-29T09:07:22;102061.16;;;11.42;66.56
51289;BME280;37372;52.294;5.152;2023-04-29T09:09:48;102065.94;;;11.26;66.90
51289;BME280;37372;52.294;5.152;2023-04-29T09:12:26;102071.44;;;11.26;66.79
51289;BME280;37372;52.294;5.152;2023-04-29T09:14:52;102066.19;;;11.31;68.27
51289;BME280;37372;52.294;5.152;2023-04-29T09:17:18;102067.28;;;11.44;65.81
51289;BME280;37372;52.294;5.152;2023-04-29T09:19:44;102060.97;;;11.56;64.92
51289;BME280;37372;52.294;5.152;2023-04-29T09:22:09;102064.72;;;11.35;67.02
51289;BME280;37372;52.294;5.152;2023-04-29T09:24:36;102065.19;;;11.52;64.72
51289;BME280;37372;52.294;5.152;2023-04-29T09:27:13;102075.56;;;11.50;67.93
51289;BME280;37372;52.294;5.152;2023-04-29T09:30:01;102073.19;;;11.34;65.91
51289;BME280;37372;52.294;5.152;2023-04-29T09:32:27;102061.78;;;11.44;65.82
51289;BME280;37372;52.294;5.152;2023-04-29T09:34:52;102068.16;;;11.51;66.25
51289;BME280;37372;52.294;5.152;2023-04-29T09:37:26;102074.47;;;11.45;64.96
51289;BME280;37372;52.294;5.152;2023-04-29T09:39:52;102070.38;;;11.82;64.57
51289;BME280;37372;52.294;5.152;2023-04-29T09:42:18;102082.44;;;11.94;66.52
51289;BME280;37372;52.294;5.152;2023-04-29T09:44:44;102078.63;;;11.82;64.47
51289;BME280;37372;52.294;5.152;2023-04-29T09:47:10;102081.38;;;11.95;64.36
51289;BME280;37372;52.294;5.152;2023-04-29T09:49:43;102079.06;;;11.85;62.98
51289;BME280;37372;52.294;5.152;2023-04-29T09:52:15;102086.41;;;11.78;63.57
51289;BME280;37372;52.294;5.152;2023-04-29T09:54:42;102082.84;;;11.91;62.81
51289;BME280;37372;52.294;5.152;2023-04-29T09:57:11;102087.50;;;11.97;63.68
51289;BME280;37372;52.294;5.152;2023-04-29T09:59:43;102082.00;;;11.97;63.22
51289;BME280;37372;52.294;5.152;2023-04-29T10:02:18;102087.50;;;11.97;63.82
51289;BME280;37372;52.294;5.152;2023-04-29T10:04:46;102093.66;;;11.92;63.42
51289;BME280;37372;52.294;5.152;2023-04-29T10:07:16;102092.19;;;12.10;63.78
51289;BME280;37372;52.294;5.152;2023-04-29T10:09:44;102096.22;;;12.01;63.48
51289;BME280;37372;52.294;5.152;2023-04-29T10:12:15;102092.84;;;12.12;63.84
51289;BME280;37372;52.294;5.152;2023-04-29T10:14:49;102097.69;;;12.03;65.12
51289;BME280;37372;52.294;5.152;2023-04-29T10:17:31;102092.38;;;11.95;64.45
51289;BME280;37372;52.294;5.152;2023-04-29T10:20:03;102100.25;;;11.98;63.90
51289;BME280;37372;52.294;5.152;2023-04-29T10:25:09;102100.44;;;12.10;63.83
51289;BME280;37372;52.294;5.152;2023-04-29T10:27:38;102101.72;;;12.07;63.48
51289;BME280;37372;52.294;5.152;2023-04-29T10:30:12;102099.16;;;11.86;62.78
51289;BME280;37372;52.294;5.152;2023-04-29T10:32:43;102099.13;;;11.79;62.19
51289;BME280;37372;52.294;5.152;2023-04-29T10:35:10;102097.25;;;11.86;61.61
51289;BME280;37372;52.294;5.152;2023-04-29T10:37:37;102096.00;;;12.02;62.45
51289;BME280;37372;52.294;5.152;2023-04-29T10:40:17;102101.72;;;12.01;61.16
51289;BME280;37372;52.294;5.152;2023-04-29T10:42:51;102098.50;;;11.84;61.01
51289;BME280;37372;52.294;5.152;2023-04-29T10:45:29;102100.88;;;12.00;63.42
51289;BME280;37372;52.294;5.152;2023-04-29T10:48:07;102095.69;;;11.77;60.90
51289;BME280;37372;52.294;5.152;2023-04-29T10:53:16;102102.31;;;11.96;61.97
51289;BME280;37372;52.294;5.152;2023-04-29T10:55:56;102099.56;;;11.96;63.01
51289;BME280;37372;52.294;5.152;2023-04-29T10:58:41;102091.94;;;11.85;61.16
51289;BME280;37372;52.294;5.152;2023-04-29T11:01:16;102094.75;;;12.05;59.74
51289;BME280;37372;52.294;5.152;2023-04-29T11:03:56;102086.91;;;12.08;60.23
51289;BME280;37372;52.294;5.152;2023-04-29T11:15:14;102097.91;;;12.02;60.73
51289;BME280;37372;52.294;5.152;2023-04-29T11:17:45;102104.47;;;12.01;59.83
51289;BME280;37372;52.294;5.152;2023-04-29T11:20:14;102101.41;;;11.76;57.96
51289;BME280;37372;52.294;5.152;2023-04-29T11:22:41;102101.28;;;11.97;58.49
51289;BME280;37372;52.294;5.152;2023-04-29T11:25:15;102104.69;;;12.06;57.42
51289;BME280;37372;52.294;5.152;2023-04-29T11:27:48;102101.94;;;12.06;57.52
51289;BME280;37372;52.294;5.152;2023-04-29T11:30:15;102111.44;;;12.16;55.94
51289;BME280;37372;52.294;5.152;2023-04-29T11:32:43;102109.13;;;12.00;59.29
51289;BME280;37372;52.294;5.152;2023-04-29T11:35:14;102106.16;;;12.08;58.09
51289;BME280;37372;52.294;5.152;2023-04-29T11:37:42;102105.50;;;11.93;57.96
51289;BME280;37372;52.294;5.152;2023-04-29T11:40:09;102110.19;;;12.12;58.62
51289;BME280;37372;52.294;5.152;2023-04-29T11:42:48;102113.34;;;12.23;60.01
51289;BME280;37372;52.294;5.152;2023-04-29T11:45:16;102116.31;;;12.54;60.54
51289;BME280;37372;52.294;5.152;2023-04-29T11:47:44;102113.34;;;12.42;58.04
51289;BME280;37372;52.294;5.152;2023-04-29T11:50:11;102119.06;;;12.54;60.65
51289;BME280;37372;52.294;5.152;2023-04-29T11:52:40;102109.75;;;12.62;57.82
51289;BME280;37372;52.294;5.152;2023-04-29T11:55:26;102121.78;;;12.81;59.44
51289;BME280;37372;52.294;5.152;2023-04-29T11:57:52;102119.69;;;12.83;57.48
51289;BME280;37372;52.294;5.152;2023-04-29T12:00:18;102131.78;;;12.82;59.05
51289;BME280;37372;52.294;5.152;2023-04-29T12:02:45;102126.06;;;12.63;55.78
51289;BME280;37372;52.294;5.152;2023-04-29T12:05:11;102116.97;;;12.56;53.51
51289;BME280;37372;52.294;5.152;2023-04-29T12:07:37;102121.59;;;12.49;55.22
51289;BME280;37372;52.294;5.152;2023-04-29T12:10:08;102125.00;;;12.58;51.81
51289;BME280;37372;52.294;5.152;2023-04-29T12:12:36;102115.69;;;12.52;55.25
51289;BME280;37372;52.294;5.152;2023-04-29T12:15:07;102124.81;;;12.33;52.08
51289;BME280;37372;52.294;5.152;2023-04-29T12:17:34;102130.94;;;12.35;52.84
51289;BME280;37372;52.294;5.152;2023-04-29T12:20:01;102119.31;;;12.46;54.28
51289;BME280;37372;52.294;5.152;2023-04-29T12:22:35;102122.47;;;12.56;52.26
51289;BME280;37372;52.294;5.152;2023-04-29T12:25:04;102120.75;;;12.75;54.74
51289;BME280;37372;52.294;5.152;2023-04-29T12:27:46;102119.09;;;12.34;50.44
51289;BME280;37372;52.294;5.152;2023-04-29T12:30:14;102118.66;;;12.51;51.97
51289;BME280;37372;52.294;5.152;2023-04-29T12:32:43;102124.81;;;12.39;53.67
51289;BME280;37372;52.294;5.152;2023-04-29T12:35:16;102116.75;;;12.51;54.83
51289;BME280;37372;52.294;5.152;2023-04-29T12:37:42;102120.34;;;12.58;55.23
51289;BME280;37372;52.294;5.152;2023-04-29T12:40:13;102117.81;;;12.50;52.98
51289;BME280;37372;52.294;5.152;2023-04-29T12:42:41;102126.28;;;12.48;56.05
51289;BME280;37372;52.294;5.152;2023-04-29T12:45:29;102124.78;;;12.66;58.34
51289;BME280;37372;52.294;5.152;2023-04-29T12:47:56;102130.75;;;12.63;56.73
51289;BME280;37372;52.294;5.152;2023-04-29T12:50:35;102129.66;;;12.64;57.46
51289;BME280;37372;52.294;5.152;2023-04-29T12:53:07;102138.13;;;12.76;58.25
51289;BME280;37372;52.294;5.152;2023-04-29T12:55:34;102134.94;;;12.79;54.51
51289;BME280;37372;52.294;5.152;2023-04-29T12:58:04;102130.50;;;12.64;57.32
51289;BME280;37372;52.294;5.152;2023-04-29T13:00:31;102129.88;;;12.62;55.21
51289;BME280;37372;52.294;5.152;2023-04-29T13:02:58;102134.97;;;12.65;55.17
51289;BME280;37372;52.294;5.152;2023-04-29T13:05:33;102142.13;;;12.80;58.29
51289;BME280;37372;52.294;5.152;2023-04-29T13:07:59;102145.34;;;12.63;56.20
51289;BME280;37372;52.294;5.152;2023-04-29T13:10:28;102137.69;;;12.79;53.53
51289;BME280;37372;52.294;5.152;2023-04-29T13:12:57;102141.50;;;12.91;55.90
51289;BME280;37372;52.294;5.152;2023-04-29T13:15:26;102139.78;;;12.96;56.77
51289;BME280;37372;52.294;5.152;2023-04-29T13:17:52;102136.66;;;12.60;52.99
51289;BME280;37372;52.294;5.152;2023-04-29T13:20:25;102140.03;;;12.68;55.68
51289;BME280;37372;52.294;5.152;2023-04-29T13:22:51;102140.44;;;12.79;55.15
51289;BME280;37372;52.294;5.152;2023-04-29T13:25:25;102146.41;;;12.69;55.47
51289;BME280;37372;52.294;5.152;2023-04-29T13:30:38;102138.56;;;12.66;53.96
51289;BME280;37372;52.294;5.152;2023-04-29T13:33:05;102144.50;;;12.50;52.63
51289;BME280;37372;52.294;5.152;2023-04-29T13:35:33;102150.84;;;12.63;53.76
51289;BME280;37372;52.294;5.152;2023-04-29T13:38:02;102149.34;;;12.74;53.76
51289;BME280;37372;52.294;5.152;2023-04-29T13:40:28;102146.81;;;12.72;54.06